createdAt,value
2023-03-22T00:02:33.947Z,82.43
2023-03-22T00:07:38.887Z,82.72
2023-03-22T00:12:43.755Z,82.44
2023-03-22T00:17:48.591Z,82.57
2023-03-22T00:22:53.842Z,83.04
2023-03-22T00:27:58.286Z,83.24
2023-03-22T00:33:02.864Z,83.56
2023-03-22T00:38:15.010Z,83.24
2023-03-22T00:43:20.210Z,83.26
2023-03-22T00:48:25.319Z,83.59
2023-03-22T00:53:29.634Z,83.73
2023-03-22T00:58:35.476Z,83.66
2023-03-22T01:03:40.144Z,84.00
2023-03-22T01:08:44.157Z,83.97
2023-03-22T01:13:48.847Z,84.23
2023-03-22T01:18:53.812Z,84.08
2023-03-22T01:23:58.542Z,84.04
2023-03-22T01:29:04.409Z,84.12
2023-03-22T01:34:09.975Z,85.24
2023-03-22T01:39:15.965Z,85.39
2023-03-22T01:44:22.947Z,85.96
2023-03-22T01:49:36.874Z,86.05
2023-03-22T01:54:54.611Z,86.66
2023-03-22T02:00:01.515Z,87.49
2023-03-22T02:05:07.682Z,87.44
2023-03-22T02:10:21.477Z,87.34
2023-03-22T02:15:48.282Z,87.38
2023-03-22T02:21:20.629Z,87.52
2023-03-22T02:26:51.579Z,87.45
2023-03-22T02:32:32.728Z,87.76
2023-03-22T02:37:54.064Z,87.89
2023-03-22T02:43:11.356Z,87.76
2023-03-22T02:48:28.088Z,88.16
2023-03-22T02:53:55.253Z,88.21
2023-03-22T02:59:05.142Z,88.27
2023-03-22T03:04:16.241Z,88.21
2023-03-22T03:09:22.085Z,88.04
2023-03-22T03:14:32.124Z,88.19
2023-03-22T03:20:01.162Z,88.34
2023-03-22T03:25:33.311Z,88.35
2023-03-22T03:30:57.650Z,88.25
2023-03-22T03:36:16.072Z,88.22
2023-03-22T03:41:25.368Z,88.04
2023-03-22T03:46:30.067Z,88.07
2023-03-22T03:51:45.962Z,88.32
2023-03-22T03:56:50.302Z,88.27
2023-03-22T04:01:54.284Z,88.09
2023-03-22T04:07:00.425Z,88.08
2023-03-22T04:12:05.861Z,88.09
2023-03-22T04:17:10.824Z,87.88
2023-03-22T04:22:18.801Z,87.88
2023-03-22T04:27:23.194Z,87.83
2023-03-22T04:32:27.143Z,87.79
2023-03-22T04:37:34.599Z,88.08
2023-03-22T04:42:38.058Z,88.06
2023-03-22T04:47:42.188Z,88.08
2023-03-22T04:52:46.138Z,87.87
2023-03-22T04:57:49.879Z,87.84
2023-03-22T05:02:53.231Z,87.83
2023-03-22T05:07:58.391Z,88.07
2023-03-22T05:13:01.796Z,87.88
2023-03-22T05:18:06.123Z,87.82
2023-03-22T05:23:10.509Z,88.09
2023-03-22T05:28:15.361Z,87.93
2023-03-22T05:33:22.327Z,88.00
2023-03-22T05:38:26.392Z,88.04
2023-03-22T05:43:30.815Z,88.03
2023-03-22T05:48:37.132Z,87.96
2023-03-22T05:53:42.285Z,88.00
2023-03-22T05:58:47.042Z,87.95
2023-03-22T06:03:51.663Z,87.57
2023-03-22T06:09:14.175Z,87.70
2023-03-22T06:14:19.876Z,87.34
2023-03-22T06:19:24.069Z,87.47
2023-03-22T06:24:27.660Z,87.62
2023-03-22T06:29:31.515Z,87.69
2023-03-22T06:34:35.219Z,87.66
2023-03-22T06:39:38.714Z,87.48
2023-03-22T06:44:45.352Z,87.19
2023-03-22T06:49:49.343Z,87.43
2023-03-22T06:54:53.773Z,87.35
2023-03-22T06:59:58.522Z,87.49
2023-03-22T07:05:03.130Z,87.44
2023-03-22T07:10:08.455Z,87.49
2023-03-22T07:15:13.479Z,86.93
2023-03-22T07:20:19.797Z,87.32
2023-03-22T07:25:25.374Z,87.02
2023-03-22T07:30:29.754Z,87.13
2023-03-22T07:35:34.612Z,87.25
2023-03-22T07:40:39.761Z,86.81
2023-03-22T07:45:44.602Z,86.68
2023-03-22T07:50:50.555Z,86.24
2023-03-22T07:55:55.100Z,85.99
2023-03-22T08:01:09.571Z,85.05
2023-03-22T08:06:13.764Z,84.88
2023-03-22T08:11:17.983Z,84.39
2023-03-22T08:16:23.203Z,84.22
2023-03-22T08:21:27.664Z,84.15
2023-03-22T08:26:31.603Z,83.44
2023-03-22T08:31:35.939Z,83.33
2023-03-22T08:36:39.742Z,82.93
2023-03-22T08:41:43.654Z,82.39
2023-03-22T08:46:48.054Z,80.68
2023-03-22T08:51:52.073Z,80.85
2023-03-22T08:56:56.301Z,81.12
2023-03-22T09:02:01.139Z,80.33
2023-03-22T09:07:06.547Z,80.32
2023-03-22T09:12:10.884Z,80.51
2023-03-22T09:17:15.276Z,80.02
2023-03-22T09:22:20.334Z,79.04
2023-03-22T09:27:24.707Z,78.77
2023-03-22T09:32:29.896Z,78.94
2023-03-22T09:37:34.832Z,78.63
2023-03-22T09:42:43.707Z,78.58
2023-03-22T09:47:54.572Z,78.15
2023-03-22T09:53:01.314Z,78.16
2023-03-22T09:58:09.046Z,77.18
2023-03-22T10:03:51.579Z,76.64
2023-03-22T10:09:20.261Z,76.58
2023-03-22T10:14:38.106Z,76.78
2023-03-22T10:20:00.513Z,76.02
2023-03-22T10:25:09.001Z,75.52
2023-03-22T10:30:25.197Z,75.36
2023-03-22T10:35:31.189Z,75.10
2023-03-22T10:40:37.190Z,74.81
2023-03-22T10:45:44.784Z,74.47
2023-03-22T10:50:49.285Z,74.55
2023-03-22T10:55:55.343Z,74.30
2023-03-22T11:01:07.307Z,73.94
2023-03-22T11:06:18.057Z,73.29
2023-03-22T11:11:32.040Z,71.96
2023-03-22T11:17:06.975Z,71.73
2023-03-22T11:22:41.329Z,71.17
2023-03-22T11:28:22.433Z,70.80
2023-03-22T11:33:26.412Z,70.60
2023-03-22T11:38:45.547Z,70.51
2023-03-22T11:43:57.553Z,70.12
2023-03-22T11:49:06.599Z,69.67
2023-03-22T11:54:17.512Z,69.47
2023-03-22T11:59:27.931Z,69.37
2023-03-22T12:04:39.479Z,69.17
2023-03-22T12:10:16.288Z,69.24
2023-03-22T12:15:31.442Z,69.50
2023-03-22T12:20:55.110Z,69.11
2023-03-22T12:26:05.829Z,68.95
2023-03-22T12:31:23.748Z,68.88
2023-03-22T12:36:35.505Z,68.06
2023-03-22T12:41:51.380Z,67.92
2023-03-22T12:47:07.090Z,67.97
2023-03-22T12:52:45.631Z,67.63
2023-03-22T12:57:52.976Z,67.04
2023-03-22T13:03:07.066Z,66.64
2023-03-22T13:08:13.998Z,66.29
2023-03-22T13:13:23.174Z,66.21
2023-03-22T13:18:39.144Z,66.43
2023-03-22T13:24:07.418Z,66.14
2023-03-22T13:29:36.882Z,65.89
2023-03-22T13:34:53.009Z,65.53
2023-03-22T13:40:02.636Z,65.23
2023-03-22T13:45:31.966Z,64.93
2023-03-22T13:50:37.404Z,64.46
2023-03-22T13:55:43.680Z,64.25
2023-03-22T14:00:54.422Z,64.11
2023-03-22T14:06:24.349Z,63.93
2023-03-22T14:11:39.287Z,63.92
2023-03-22T14:16:51.944Z,63.97
